Adaline — TCSP7 — position and weather

sailwx.info

Track history (hours):
 
Tides and Currents Weather Stations Pressure Air Temp Water Temp Dewpoint Dewpoint Depression Visibility Wind Speed Wind Dir Waves Ship Positions

Adaline

Last reported at 2017-Dec-09 05:33 UTC. Time now 2017-Dec-13 14:52 UTC.
Position N 37°08' E 023°47'.

Length 115 m; draft 8.7 m.

Type: Cargo ship. MMSI: 271000946.

Date/timePositionNaut miles runAvg speedWind from/ knotsBaromVisibWave heightAir tempDewpointWater temp
2017-Dec-09 05:33N 37°08' E 023°47'1710.8
2017-Dec-09 03:59N 37°22' E 023°58'611.4
2017-Dec-09 03:30N 37°27' E 024°02'611.2
2017-Dec-09 03:00N 37°31' E 024°06'510.9
2017-Dec-09 02:31N 37°36' E 024°09'910.8
2017-Dec-09 01:39N 37°43' E 024°17'210.8
2017-Dec-09 01:31N 37°44' E 024°18'1011.1
2017-Dec-09 00:35N 37°51' E 024°28'111.0
2017-Dec-09 00:31N 37°51' E 024°29'  
2017-Dec-02 14:14N 46°29' E 030°57'210.0
2017-Dec-02 14:00N 46°26' E 030°57'  
Track history (hours):
 
Tides and Currents Weather Stations Pressure Air Temp Water Temp Dewpoint Dewpoint Depression Visibility Wind Speed Wind Dir Waves Ship Positions

Adaline

Last reported at 2017-Dec-09 05:33 UTC. Time now 2017-Dec-13 14:52 UTC.
Position N 37°08' E 023°47'.

Length 115 m; draft 8.7 m.

Type: Cargo ship. MMSI: 271000946.

Date/timePositionNaut miles runAvg speedWind from/ knotsBaromVisibWave heightAir tempDewpointWater temp
2017-Dec-09 05:33N 37°08' E 023°47'1710.8
2017-Dec-09 03:59N 37°22' E 023°58'611.4
2017-Dec-09 03:30N 37°27' E 024°02'611.2
2017-Dec-09 03:00N 37°31' E 024°06'510.9
2017-Dec-09 02:31N 37°36' E 024°09'910.8
2017-Dec-09 01:39N 37°43' E 024°17'210.8
2017-Dec-09 01:31N 37°44' E 024°18'1011.1
2017-Dec-09 00:35N 37°51' E 024°28'111.0
2017-Dec-09 00:31N 37°51' E 024°29'  
2017-Dec-02 14:14N 46°29' E 030°57'210.0
2017-Dec-02 14:00N 46°26' E 030°57'  

Dump ship's entire track history